sensor_id;sensor_type;location;lat;lon;timestamp;temperature;humidity
39665;DHT22;26679;50.872;4.332;2022-09-17T00:02:04;11.70;99.90
39665;DHT22;26679;50.872;4.332;2022-09-17T00:04:31;11.70;99.90
39665;DHT22;26679;50.872;4.332;2022-09-17T00:06:56;11.70;99.90
39665;DHT22;26679;50.872;4.332;2022-09-17T00:09:22;11.80;99.90
39665;DHT22;26679;50.872;4.332;2022-09-17T00:11:47;11.80;99.90
39665;DHT22;26679;50.872;4.332;2022-09-17T00:14:14;11.70;99.90
39665;DHT22;26679;50.872;4.332;2022-09-17T00:16:41;11.80;99.90
39665;DHT22;26679;50.872;4.332;2022-09-17T00:19:09;11.80;99.90
39665;DHT22;26679;50.872;4.332;2022-09-17T00:21:36;11.70;99.90
39665;DHT22;26679;50.872;4.332;2022-09-17T00:24:03;11.70;99.90
39665;DHT22;26679;50.872;4.332;2022-09-17T00:26:28;11.70;99.90
39665;DHT22;26679;50.872;4.332;2022-09-17T00:28:55;11.60;99.90
39665;DHT22;26679;50.872;4.332;2022-09-17T00:31:21;11.70;99.90
39665;DHT22;26679;50.872;4.332;2022-09-17T00:33:47;11.60;99.90
39665;DHT22;26679;50.872;4.332;2022-09-17T00:36:13;11.50;99.90
39665;DHT22;26679;50.872;4.332;2022-09-17T00:38:39;11.40;99.90
39665;DHT22;26679;50.872;4.332;2022-09-17T00:41:05;11.40;99.90
39665;DHT22;26679;50.872;4.332;2022-09-17T00:43:32;11.30;99.90
39665;DHT22;26679;50.872;4.332;2022-09-17T00:45:58;11.30;99.90
39665;DHT22;26679;50.872;4.332;2022-09-17T00:48:24;11.40;99.90
39665;DHT22;26679;50.872;4.332;2022-09-17T00:50:49;11.40;99.90
39665;DHT22;26679;50.872;4.332;2022-09-17T00:53:17;11.40;99.90
39665;DHT22;26679;50.872;4.332;2022-09-17T00:58:13;11.40;99.90
39665;DHT22;26679;50.872;4.332;2022-09-17T01:00:40;11.40;99.90
39665;DHT22;26679;50.872;4.332;2022-09-17T01:03:05;11.50;99.90
39665;DHT22;26679;50.872;4.332;2022-09-17T01:18:31;11.60;99.90
39665;DHT22;26679;50.872;4.332;2022-09-17T01:21:13;11.50;99.90
39665;DHT22;26679;50.872;4.332;2022-09-17T01:23:56;11.50;99.90
39665;DHT22;26679;50.872;4.332;2022-09-17T01:29:08;11.70;99.90
39665;DHT22;26679;50.872;4.332;2022-09-17T01:39:24;11.80;99.90
39665;DHT22;26679;50.872;4.332;2022-09-17T01:41:53;11.80;99.90
39665;DHT22;26679;50.872;4.332;2022-09-17T01:49:28;11.80;99.90
39665;DHT22;26679;50.872;4.332;2022-09-17T01:51:55;11.80;99.90
39665;DHT22;26679;50.872;4.332;2022-09-17T01:54:23;11.70;99.90
39665;DHT22;26679;50.872;4.332;2022-09-17T01:56:51;11.70;99.90
39665;DHT22;26679;50.872;4.332;2022-09-17T01:59:24;11.70;99.90
39665;DHT22;26679;50.872;4.332;2022-09-17T02:01:57;11.70;99.90
39665;DHT22;26679;50.872;4.332;2022-09-17T02:04:25;11.70;99.90
39665;DHT22;26679;50.872;4.332;2022-09-17T02:06:54;11.60;99.90
39665;DHT22;26679;50.872;4.332;2022-09-17T02:09:22;11.60;99.90
39665;DHT22;26679;50.872;4.332;2022-09-17T02:11:50;11.60;99.90
39665;DHT22;26679;50.872;4.332;2022-09-17T02:16:59;11.60;99.90
39665;DHT22;26679;50.872;4.332;2022-09-17T02:19:27;11.70;99.90
39665;DHT22;26679;50.872;4.332;2022-09-17T02:24:23;11.70;99.90
39665;DHT22;26679;50.872;4.332;2022-09-17T02:26:58;11.70;99.90
39665;DHT22;26679;50.872;4.332;2022-09-17T02:29:29;11.70;99.90
39665;DHT22;26679;50.872;4.332;2022-09-17T02:31:56;11.80;99.90
39665;DHT22;26679;50.872;4.332;2022-09-17T02:34:21;11.80;99.90
39665;DHT22;26679;50.872;4.332;2022-09-17T02:36:50;11.80;99.90
39665;DHT22;26679;50.872;4.332;2022-09-17T02:39:15;11.80;99.90
39665;DHT22;26679;50.872;4.332;2022-09-17T02:44:25;11.90;99.90
39665;DHT22;26679;50.872;4.332;2022-09-17T02:47:14;11.90;99.90
39665;DHT22;26679;50.872;4.332;2022-09-17T02:57:29;11.80;99.90
39665;DHT22;26679;50.872;4.332;2022-09-17T02:59:58;11.80;99.90
39665;DHT22;26679;50.872;4.332;2022-09-17T03:05:04;11.60;99.90
39665;DHT22;26679;50.872;4.332;2022-09-17T03:07:30;11.70;99.90
39665;DHT22;26679;50.872;4.332;2022-09-17T03:09:56;11.70;99.90
39665;DHT22;26679;50.872;4.332;2022-09-17T03:12:22;11.70;99.90
39665;DHT22;26679;50.872;4.332;2022-09-17T03:14:49;11.60;99.90
39665;DHT22;26679;50.872;4.332;2022-09-17T03:17:14;11.60;99.90
39665;DHT22;26679;50.872;4.332;2022-09-17T03:19:40;11.60;99.90
39665;DHT22;26679;50.872;4.332;2022-09-17T03:22:05;11.40;99.90
39665;DHT22;26679;50.872;4.332;2022-09-17T03:24:31;11.40;99.90
39665;DHT22;26679;50.872;4.332;2022-09-17T03:26:56;11.40;99.90
39665;DHT22;26679;50.872;4.332;2022-09-17T03:29:22;11.40;99.90
39665;DHT22;26679;50.872;4.332;2022-09-17T03:31:47;11.40;99.90
39665;DHT22;26679;50.872;4.332;2022-09-17T03:34:13;11.50;99.90
39665;DHT22;26679;50.872;4.332;2022-09-17T03:36:38;11.50;99.90
39665;DHT22;26679;50.872;4.332;2022-09-17T03:39:04;11.40;99.90
39665;DHT22;26679;50.872;4.332;2022-09-17T03:41:29;11.40;99.90
39665;DHT22;26679;50.872;4.332;2022-09-17T03:43:55;11.30;99.90
39665;DHT22;26679;50.872;4.332;2022-09-17T03:46:20;11.30;99.90
39665;DHT22;26679;50.872;4.332;2022-09-17T03:48:46;11.20;99.90
39665;DHT22;26679;50.872;4.332;2022-09-17T03:51:11;11.20;99.90
39665;DHT22;26679;50.872;4.332;2022-09-17T03:53:37;11.20;99.90
39665;DHT22;26679;50.872;4.332;2022-09-17T03:56:03;11.20;99.90
39665;DHT22;26679;50.872;4.332;2022-09-17T03:58:29;11.10;99.90
39665;DHT22;26679;50.872;4.332;2022-09-17T04:00:55;11.10;99.90
39665;DHT22;26679;50.872;4.332;2022-09-17T04:03:28;11.20;99.90
39665;DHT22;26679;50.872;4.332;2022-09-17T04:05:53;11.30;99.90
39665;DHT22;26679;50.872;4.332;2022-09-17T04:08:19;11.30;99.90
39665;DHT22;26679;50.872;4.332;2022-09-17T04:10:45;11.30;99.90
39665;DHT22;26679;50.872;4.332;2022-09-17T04:13:11;11.30;99.90
39665;DHT22;26679;50.872;4.332;2022-09-17T04:15:37;11.40;99.90
39665;DHT22;26679;50.872;4.332;2022-09-17T04:18:03;11.40;99.90
39665;DHT22;26679;50.872;4.332;2022-09-17T04:20:29;11.40;99.90
39665;DHT22;26679;50.872;4.332;2022-09-17T04:22:55;11.30;99.90
39665;DHT22;26679;50.872;4.332;2022-09-17T04:25:20;11.30;99.90
39665;DHT22;26679;50.872;4.332;2022-09-17T04:27:46;11.30;99.90
39665;DHT22;26679;50.872;4.332;2022-09-17T04:30:14;11.20;99.90
39665;DHT22;26679;50.872;4.332;2022-09-17T04:32:41;11.20;99.90
39665;DHT22;26679;50.872;4.332;2022-09-17T04:35:07;11.20;99.90
39665;DHT22;26679;50.872;4.332;2022-09-17T04:37:33;11.20;99.90
39665;DHT22;26679;50.872;4.332;2022-09-17T04:39:58;11.20;99.90
39665;DHT22;26679;50.872;4.332;2022-09-17T04:42:24;11.00;99.90
39665;DHT22;26679;50.872;4.332;2022-09-17T04:44:49;11.10;99.90
39665;DHT22;26679;50.872;4.332;2022-09-17T04:47:15;11.10;99.90
39665;DHT22;26679;50.872;4.332;2022-09-17T04:49:40;11.20;99.90
39665;DHT22;26679;50.872;4.332;2022-09-17T04:52:06;11.20;99.90
39665;DHT22;26679;50.872;4.332;2022-09-17T04:54:31;11.20;99.90
39665;DHT22;26679;50.872;4.332;2022-09-17T04:56:57;11.20;99.90
39665;DHT22;26679;50.872;4.332;2022-09-17T04:59:23;11.30;99.90
39665;DHT22;26679;50.872;4.332;2022-09-17T05:01:49;11.40;99.90
39665;DHT22;26679;50.872;4.332;2022-09-17T05:04:14;11.50;99.90
39665;DHT22;26679;50.872;4.332;2022-09-17T05:06:40;11.40;99.90
39665;DHT22;26679;50.872;4.332;2022-09-17T05:09:06;11.40;99.90
39665;DHT22;26679;50.872;4.332;2022-09-17T05:11:31;11.30;99.90
39665;DHT22;26679;50.872;4.332;2022-09-17T05:13:57;11.30;99.90
39665;DHT22;26679;50.872;4.332;2022-09-17T05:16:22;11.20;99.90
39665;DHT22;26679;50.872;4.332;2022-09-17T05:18:48;11.20;99.90
39665;DHT22;26679;50.872;4.332;2022-09-17T05:21:16;11.10;99.90
39665;DHT22;26679;50.872;4.332;2022-09-17T05:23:41;11.10;99.90
39665;DHT22;26679;50.872;4.332;2022-09-17T05:26:07;11.10;99.90
39665;DHT22;26679;50.872;4.332;2022-09-17T05:28:32;11.20;99.90
39665;DHT22;26679;50.872;4.332;2022-09-17T05:30:58;11.30;99.90
39665;DHT22;26679;50.872;4.332;2022-09-17T05:33:24;11.30;99.90
39665;DHT22;26679;50.872;4.332;2022-09-17T05:35:50;11.30;99.90
39665;DHT22;26679;50.872;4.332;2022-09-17T05:38:15;11.40;99.90
39665;DHT22;26679;50.872;4.332;2022-09-17T05:40:43;11.40;99.90
39665;DHT22;26679;50.872;4.332;2022-09-17T05:43:09;11.50;99.90
39665;DHT22;26679;50.872;4.332;2022-09-17T05:45:35;11.60;99.90
39665;DHT22;26679;50.872;4.332;2022-09-17T05:48:02;11.70;99.90
39665;DHT22;26679;50.872;4.332;2022-09-17T05:50:28;11.70;99.90
39665;DHT22;26679;50.872;4.332;2022-09-17T05:52:54;11.70;99.90
39665;DHT22;26679;50.872;4.332;2022-09-17T05:55:21;11.80;99.90
39665;DHT22;26679;50.872;4.332;2022-09-17T05:57:49;11.70;99.90
39665;DHT22;26679;50.872;4.332;2022-09-17T06:00:15;11.70;99.90
39665;DHT22;26679;50.872;4.332;2022-09-17T06:02:41;11.60;99.90
39665;DHT22;26679;50.872;4.332;2022-09-17T06:05:06;11.70;99.90
39665;DHT22;26679;50.872;4.332;2022-09-17T06:07:34;11.60;99.90
39665;DHT22;26679;50.872;4.332;2022-09-17T06:09:59;11.50;99.90
39665;DHT22;26679;50.872;4.332;2022-09-17T06:12:25;11.50;99.90
39665;DHT22;26679;50.872;4.332;2022-09-17T06:14:50;11.50;99.90
39665;DHT22;26679;50.872;4.332;2022-09-17T06:17:16;11.50;99.90
39665;DHT22;26679;50.872;4.332;2022-09-17T06:19:41;11.60;99.90
39665;DHT22;26679;50.872;4.332;2022-09-17T06:22:07;11.60;99.90
39665;DHT22;26679;50.872;4.332;2022-09-17T06:24:32;11.50;99.90
39665;DHT22;26679;50.872;4.332;2022-09-17T06:26:58;11.50;99.90
39665;DHT22;26679;50.872;4.332;2022-09-17T06:29:23;11.60;99.90
39665;DHT22;26679;50.872;4.332;2022-09-17T06:31:49;11.60;99.90
39665;DHT22;26679;50.872;4.332;2022-09-17T06:34:15;11.60;99.90
39665;DHT22;26679;50.872;4.332;2022-09-17T06:36:40;11.60;99.90
39665;DHT22;26679;50.872;4.332;2022-09-17T06:39:06;11.50;99.90
39665;DHT22;26679;50.872;4.332;2022-09-17T06:41:31;11.60;99.90
39665;DHT22;26679;50.872;4.332;2022-09-17T06:43:57;11.40;99.90
39665;DHT22;26679;50.872;4.332;2022-09-17T06:46:23;11.70;99.90
39665;DHT22;26679;50.872;4.332;2022-09-17T06:48:48;11.70;99.90
39665;DHT22;26679;50.872;4.332;2022-09-17T06:51:14;11.70;99.90
39665;DHT22;26679;50.872;4.332;2022-09-17T06:53:39;11.70;99.90
39665;DHT22;26679;50.872;4.332;2022-09-17T06:56:05;11.70;99.90
39665;DHT22;26679;50.872;4.332;2022-09-17T06:58:31;11.80;99.90
39665;DHT22;26679;50.872;4.332;2022-09-17T07:01:00;11.80;99.90
39665;DHT22;26679;50.872;4.332;2022-09-17T07:03:26;11.70;99.90
39665;DHT22;26679;50.872;4.332;2022-09-17T07:05:52;11.70;99.90
39665;DHT22;26679;50.872;4.332;2022-09-17T07:08:17;11.70;99.90
39665;DHT22;26679;50.872;4.332;2022-09-17T07:10:43;11.90;99.90
39665;DHT22;26679;50.872;4.332;2022-09-17T07:13:08;11.90;99.90
39665;DHT22;26679;50.872;4.332;2022-09-17T07:15:34;11.90;99.90
39665;DHT22;26679;50.872;4.332;2022-09-17T07:18:06;12.00;99.90
39665;DHT22;26679;50.872;4.332;2022-09-17T07:20:31;12.00;99.90
39665;DHT22;26679;50.872;4.332;2022-09-17T07:22:57;12.00;99.90
39665;DHT22;26679;50.872;4.332;2022-09-17T07:25:25;12.10;99.90
39665;DHT22;26679;50.872;4.332;2022-09-17T07:27:51;12.00;99.90
39665;DHT22;26679;50.872;4.332;2022-09-17T07:30:17;12.00;99.90
39665;DHT22;26679;50.872;4.332;2022-09-17T07:32:43;12.00;99.90
39665;DHT22;26679;50.872;4.332;2022-09-17T07:35:08;12.00;99.90
39665;DHT22;26679;50.872;4.332;2022-09-17T07:37:34;12.00;99.90
39665;DHT22;26679;50.872;4.332;2022-09-17T07:39:59;12.00;99.90
39665;DHT22;26679;50.872;4.332;2022-09-17T07:42:25;12.10;99.90
39665;DHT22;26679;50.872;4.332;2022-09-17T07:44:52;12.20;99.90
39665;DHT22;26679;50.872;4.332;2022-09-17T07:47:17;12.20;99.90
39665;DHT22;26679;50.872;4.332;2022-09-17T07:49:43;12.30;99.90
39665;DHT22;26679;50.872;4.332;2022-09-17T07:52:08;12.30;99.90
39665;DHT22;26679;50.872;4.332;2022-09-17T07:54:34;12.40;99.90
39665;DHT22;26679;50.872;4.332;2022-09-17T07:57:03;12.50;99.90
39665;DHT22;26679;50.872;4.332;2022-09-17T07:59:29;12.50;99.90
39665;DHT22;26679;50.872;4.332;2022-09-17T08:01:54;12.50;99.90
39665;DHT22;26679;50.872;4.332;2022-09-17T08:04:20;12.50;99.90
39665;DHT22;26679;50.872;4.332;2022-09-17T08:06:45;12.60;99.90
39665;DHT22;26679;50.872;4.332;2022-09-17T08:09:13;12.80;99.90
39665;DHT22;26679;50.872;4.332;2022-09-17T08:11:39;12.80;99.90
39665;DHT22;26679;50.872;4.332;2022-09-17T08:14:05;12.90;99.90
39665;DHT22;26679;50.872;4.332;2022-09-17T08:16:31;12.90;99.90
39665;DHT22;26679;50.872;4.332;2022-09-17T08:18:57;12.90;99.90
39665;DHT22;26679;50.872;4.332;2022-09-17T08:21:22;12.90;99.90
39665;DHT22;26679;50.872;4.332;2022-09-17T08:23:48;12.90;99.90
39665;DHT22;26679;50.872;4.332;2022-09-17T08:26:23;13.00;99.90
39665;DHT22;26679;50.872;4.332;2022-09-17T08:28:50;13.10;99.90
39665;DHT22;26679;50.872;4.332;2022-09-17T08:31:17;13.30;99.90
39665;DHT22;26679;50.872;4.332;2022-09-17T08:33:45;13.50;99.90
39665;DHT22;26679;50.872;4.332;2022-09-17T08:36:12;13.90;99.90
39665;DHT22;26679;50.872;4.332;2022-09-17T08:38:38;14.50;99.90
39665;DHT22;26679;50.872;4.332;2022-09-17T08:43:31;16.30;99.90
39665;DHT22;26679;50.872;4.332;2022-09-17T08:45:58;16.60;99.90
39665;DHT22;26679;50.872;4.332;2022-09-17T08:48:28;16.40;99.90
39665;DHT22;26679;50.872;4.332;2022-09-17T08:50:55;16.10;99.90
39665;DHT22;26679;50.872;4.332;2022-09-17T09:06:02;14.90;99.90
39665;DHT22;26679;50.872;4.332;2022-09-17T09:11:05;14.60;99.90
39665;DHT22;26679;50.872;4.332;2022-09-17T09:13:45;14.70;99.90
39665;DHT22;26679;50.872;4.332;2022-09-17T09:16:19;14.60;99.90
39665;DHT22;26679;50.872;4.332;2022-09-17T09:18:48;14.80;99.90
39665;DHT22;26679;50.872;4.332;2022-09-17T09:23:55;14.10;99.90
39665;DHT22;26679;50.872;4.332;2022-09-17T09:26:31;14.00;99.90
39665;DHT22;26679;50.872;4.332;2022-09-17T09:29:06;13.60;99.90
39665;DHT22;26679;50.872;4.332;2022-09-17T09:34:02;13.30;99.90
39665;DHT22;26679;50.872;4.332;2022-09-17T09:36:29;13.10;99.90
39665;DHT22;26679;50.872;4.332;2022-09-17T09:39:02;13.10;99.90
39665;DHT22;26679;50.872;4.332;2022-09-17T09:41:33;13.00;99.90
39665;DHT22;26679;50.872;4.332;2022-09-17T09:44:08;12.90;99.90
39665;DHT22;26679;50.872;4.332;2022-09-17T09:59:20;14.80;99.90
39665;DHT22;26679;50.872;4.332;2022-09-17T10:01:46;15.40;99.90
39665;DHT22;26679;50.872;4.332;2022-09-17T10:04:15;15.60;99.90
39665;DHT22;26679;50.872;4.332;2022-09-17T10:06:41;15.60;99.90
39665;DHT22;26679;50.872;4.332;2022-09-17T10:11:32;16.00;99.90
39665;DHT22;26679;50.872;4.332;2022-09-17T10:16:34;16.50;99.90
39665;DHT22;26679;50.872;4.332;2022-09-17T10:21:32;16.30;99.90
39665;DHT22;26679;50.872;4.332;2022-09-17T10:23:58;16.10;99.90
39665;DHT22;26679;50.872;4.332;2022-09-17T10:26:32;15.90;99.90
39665;DHT22;26679;50.872;4.332;2022-09-17T10:28:58;15.70;99.90
39665;DHT22;26679;50.872;4.332;2022-09-17T10:31:25;15.60;99.90
39665;DHT22;26679;50.872;4.332;2022-09-17T10:41:50;14.90;99.90
39665;DHT22;26679;50.872;4.332;2022-09-17T10:44:19;15.00;99.90
39665;DHT22;26679;50.872;4.332;2022-09-17T10:46:46;15.30;99.90
39665;DHT22;26679;50.872;4.332;2022-09-17T10:49:33;15.40;99.90
39665;DHT22;26679;50.872;4.332;2022-09-17T10:52:33;15.50;99.90
39665;DHT22;26679;50.872;4.332;2022-09-17T10:54:57;15.60;99.90
39665;DHT22;26679;50.872;4.332;2022-09-17T10:57:29;15.40;99.90
39665;DHT22;26679;50.872;4.332;2022-09-17T11:00:01;15.30;99.90
39665;DHT22;26679;50.872;4.332;2022-09-17T11:02:33;15.10;99.90
39665;DHT22;26679;50.872;4.332;2022-09-17T11:07:46;15.00;99.90
39665;DHT22;26679;50.872;4.332;2022-09-17T11:10:28;14.90;99.90
39665;DHT22;26679;50.872;4.332;2022-09-17T11:30:21;15.20;99.90
39665;DHT22;26679;50.872;4.332;2022-09-17T11:35:26;15.00;99.90
39665;DHT22;26679;50.872;4.332;2022-09-17T11:37:57;15.00;99.90
39665;DHT22;26679;50.872;4.332;2022-09-17T11:45:22;15.60;99.90
39665;DHT22;26679;50.872;4.332;2022-09-17T11:50:18;15.70;99.90
39665;DHT22;26679;50.872;4.332;2022-09-17T11:55:21;15.90;99.90
39665;DHT22;26679;50.872;4.332;2022-09-17T11:57:49;15.80;99.90
39665;DHT22;26679;50.872;4.332;2022-09-17T12:00:19;15.70;99.90
39665;DHT22;26679;50.872;4.332;2022-09-17T12:02:47;15.60;99.90
39665;DHT22;26679;50.872;4.332;2022-09-17T12:05:20;15.70;99.90
39665;DHT22;26679;50.872;4.332;2022-09-17T12:12:51;18.40;99.90
39665;DHT22;26679;50.872;4.332;2022-09-17T12:15:21;18.60;99.90
39665;DHT22;26679;50.872;4.332;2022-09-17T12:20:22;18.40;99.90
39665;DHT22;26679;50.872;4.332;2022-09-17T12:22:49;18.60;99.90
39665;DHT22;26679;50.872;4.332;2022-09-17T12:25:15;18.80;99.90
39665;DHT22;26679;50.872;4.332;2022-09-17T12:27:49;19.90;99.90
39665;DHT22;26679;50.872;4.332;2022-09-17T12:30:19;20.10;99.90
39665;DHT22;26679;50.872;4.332;2022-09-17T12:32:52;19.80;99.90
39665;DHT22;26679;50.872;4.332;2022-09-17T12:48:28;16.70;99.90
39665;DHT22;26679;50.872;4.332;2022-09-17T12:53:29;16.30;99.90
39665;DHT22;26679;50.872;4.332;2022-09-17T13:01:43;15.70;99.90
39665;DHT22;26679;50.872;4.332;2022-09-17T13:03:49;15.30;99.90
39665;DHT22;26679;50.872;4.332;2022-09-17T13:16:36;13.60;99.90
39665;DHT22;26679;50.872;4.332;2022-09-17T13:21:44;13.60;99.90
39665;DHT22;26679;50.872;4.332;2022-09-17T13:24:17;14.30;99.90
39665;DHT22;26679;50.872;4.332;2022-09-17T13:26:43;14.90;99.90
39665;DHT22;26679;50.872;4.332;2022-09-17T13:29:12;15.40;99.90
39665;DHT22;26679;50.872;4.332;2022-09-17T13:31:57;15.80;99.90
39665;DHT22;26679;50.872;4.332;2022-09-17T13:34:27;15.90;99.90
39665;DHT22;26679;50.872;4.332;2022-09-17T13:37:00;15.80;99.90
39665;DHT22;26679;50.872;4.332;2022-09-17T13:42:09;16.00;99.90
39665;DHT22;26679;50.872;4.332;2022-09-17T13:44:38;17.20;99.90
39665;DHT22;26679;50.872;4.332;2022-09-17T13:47:24;18.40;99.90
39665;DHT22;26679;50.872;4.332;2022-09-17T13:49:51;19.30;99.90
39665;DHT22;26679;50.872;4.332;2022-09-17T13:54:55;21.50;99.90
39665;DHT22;26679;50.872;4.332;2022-09-17T13:57:21;22.30;99.90
39665;DHT22;26679;50.872;4.332;2022-09-17T13:59:51;22.40;99.20
39665;DHT22;26679;50.872;4.332;2022-09-17T14:09:52;24.10;94.80
39665;DHT22;26679;50.872;4.332;2022-09-17T14:14:55;24.00;94.30
39665;DHT22;26679;50.872;4.332;2022-09-17T14:19:57;22.90;94.50
39665;DHT22;26679;50.872;4.332;2022-09-17T14:22:24;22.00;94.90
39665;DHT22;26679;50.872;4.332;2022-09-17T14:24:50;21.00;95.50
39665;DHT22;26679;50.872;4.332;2022-09-17T14:35:18;18.30;99.90
39665;DHT22;26679;50.872;4.332;2022-09-17T14:37:46;17.30;99.90
39665;DHT22;26679;50.872;4.332;2022-09-17T14:40:16;16.30;99.90
39665;DHT22;26679;50.872;4.332;2022-09-17T14:42:42;15.60;99.90
39665;DHT22;26679;50.872;4.332;2022-09-17T14:45:16;15.10;99.90
39665;DHT22;26679;50.872;4.332;2022-09-17T14:47:42;14.70;99.90
39665;DHT22;26679;50.872;4.332;2022-09-17T14:52:47;14.40;99.90
39665;DHT22;26679;50.872;4.332;2022-09-17T14:55:18;14.40;99.90
39665;DHT22;26679;50.872;4.332;2022-09-17T14:57:45;14.40;99.90
39665;DHT22;26679;50.872;4.332;2022-09-17T15:00:16;14.70;99.90
39665;DHT22;26679;50.872;4.332;2022-09-17T15:02:42;15.40;99.90
39665;DHT22;26679;50.872;4.332;2022-09-17T15:05:31;16.10;99.90
39665;DHT22;26679;50.872;4.332;2022-09-17T15:10:34;17.10;99.90
39665;DHT22;26679;50.872;4.332;2022-09-17T15:13:00;17.10;99.90
39665;DHT22;26679;50.872;4.332;2022-09-17T15:15:26;17.00;99.90
39665;DHT22;26679;50.872;4.332;2022-09-17T15:17:52;16.70;99.90
39665;DHT22;26679;50.872;4.332;2022-09-17T15:20:22;16.60;99.90
39665;DHT22;26679;50.872;4.332;2022-09-17T15:22:57;16.50;99.90
39665;DHT22;26679;50.872;4.332;2022-09-17T15:25:28;16.50;99.90
39665;DHT22;26679;50.872;4.332;2022-09-17T15:27:55;16.40;99.90
39665;DHT22;26679;50.872;4.332;2022-09-17T15:30:22;16.30;99.90
39665;DHT22;26679;50.872;4.332;2022-09-17T15:32:51;16.20;99.90
39665;DHT22;26679;50.872;4.332;2022-09-17T15:37:44;16.00;99.90
39665;DHT22;26679;50.872;4.332;2022-09-17T15:40:14;15.90;99.90
39665;DHT22;26679;50.872;4.332;2022-09-17T15:42:47;15.70;99.90
39665;DHT22;26679;50.872;4.332;2022-09-17T15:45:17;15.70;99.90
39665;DHT22;26679;50.872;4.332;2022-09-17T15:47:49;15.60;99.90
39665;DHT22;26679;50.872;4.332;2022-09-17T15:52:43;15.50;99.90
39665;DHT22;26679;50.872;4.332;2022-09-17T15:57:45;15.90;99.90
39665;DHT22;26679;50.872;4.332;2022-09-17T16:00:11;16.00;99.90
39665;DHT22;26679;50.872;4.332;2022-09-17T16:02:40;16.10;99.90
39665;DHT22;26679;50.872;4.332;2022-09-17T16:07:44;15.70;99.90
39665;DHT22;26679;50.872;4.332;2022-09-17T16:10:10;15.50;99.90
39665;DHT22;26679;50.872;4.332;2022-09-17T16:12:36;15.40;99.90
39665;DHT22;26679;50.872;4.332;2022-09-17T16:15:01;15.30;99.90
39665;DHT22;26679;50.872;4.332;2022-09-17T16:17:29;15.40;99.90
39665;DHT22;26679;50.872;4.332;2022-09-17T16:19:58;15.50;99.90
39665;DHT22;26679;50.872;4.332;2022-09-17T16:22:24;15.50;99.90
39665;DHT22;26679;50.872;4.332;2022-09-17T16:24:51;15.50;99.90
39665;DHT22;26679;50.872;4.332;2022-09-17T16:27:18;15.60;99.90
39665;DHT22;26679;50.872;4.332;2022-09-17T16:29:45;15.60;99.90
39665;DHT22;26679;50.872;4.332;2022-09-17T16:32:10;15.60;99.90
39665;DHT22;26679;50.872;4.332;2022-09-17T16:34:36;15.50;99.90
39665;DHT22;26679;50.872;4.332;2022-09-17T16:37:02;15.60;99.90
39665;DHT22;26679;50.872;4.332;2022-09-17T16:39:28;15.70;99.90
39665;DHT22;26679;50.872;4.332;2022-09-17T16:41:53;15.70;99.90
39665;DHT22;26679;50.872;4.332;2022-09-17T16:44:19;15.60;99.90
39665;DHT22;26679;50.872;4.332;2022-09-17T16:46:44;15.40;99.90
39665;DHT22;26679;50.872;4.332;2022-09-17T16:49:13;15.30;99.90
39665;DHT22;26679;50.872;4.332;2022-09-17T16:51:38;15.20;99.90
39665;DHT22;26679;50.872;4.332;2022-09-17T16:54:04;15.10;99.90
39665;DHT22;26679;50.872;4.332;2022-09-17T16:56:29;15.10;99.90
39665;DHT22;26679;50.872;4.332;2022-09-17T16:58:55;15.00;99.90
39665;DHT22;26679;50.872;4.332;2022-09-17T17:01:21;14.90;99.90
39665;DHT22;26679;50.872;4.332;2022-09-17T17:03:49;14.90;99.90
39665;DHT22;26679;50.872;4.332;2022-09-17T17:06:15;14.90;99.90
39665;DHT22;26679;50.872;4.332;2022-09-17T17:08:40;14.90;99.90
39665;DHT22;26679;50.872;4.332;2022-09-17T17:11:06;14.90;99.90
39665;DHT22;26679;50.872;4.332;2022-09-17T17:13:31;14.60;99.90
39665;DHT22;26679;50.872;4.332;2022-09-17T17:15:57;14.40;99.90
39665;DHT22;26679;50.872;4.332;2022-09-17T17:18:22;14.10;99.90
39665;DHT22;26679;50.872;4.332;2022-09-17T17:20:49;14.10;99.90
39665;DHT22;26679;50.872;4.332;2022-09-17T17:23:14;14.00;99.90
39665;DHT22;26679;50.872;4.332;2022-09-17T17:25:40;13.90;99.90
39665;DHT22;26679;50.872;4.332;2022-09-17T17:28:05;13.80;99.90
39665;DHT22;26679;50.872;4.332;2022-09-17T17:30:31;13.80;99.90
39665;DHT22;26679;50.872;4.332;2022-09-17T17:32:56;13.70;99.90
39665;DHT22;26679;50.872;4.332;2022-09-17T17:35:24;13.80;99.90
39665;DHT22;26679;50.872;4.332;2022-09-17T17:37:50;13.80;99.90
39665;DHT22;26679;50.872;4.332;2022-09-17T17:40:15;13.80;99.90
39665;DHT22;26679;50.872;4.332;2022-09-17T17:42:41;13.80;99.90
39665;DHT22;26679;50.872;4.332;2022-09-17T17:45:08;13.80;99.90
39665;DHT22;26679;50.872;4.332;2022-09-17T17:47:34;13.90;99.90
39665;DHT22;26679;50.872;4.332;2022-09-17T17:50:00;13.90;99.90
39665;DHT22;26679;50.872;4.332;2022-09-17T17:52:26;13.90;99.90
39665;DHT22;26679;50.872;4.332;2022-09-17T17:54:52;13.90;99.90
39665;DHT22;26679;50.872;4.332;2022-09-17T17:57:17;13.90;99.90
39665;DHT22;26679;50.872;4.332;2022-09-17T17:59:43;14.00;99.90
39665;DHT22;26679;50.872;4.332;2022-09-17T18:02:09;13.90;99.90
39665;DHT22;26679;50.872;4.332;2022-09-17T18:04:35;13.70;99.90
39665;DHT22;26679;50.872;4.332;2022-09-17T18:07:00;13.60;99.90
39665;DHT22;26679;50.872;4.332;2022-09-17T18:09:26;13.50;99.90
39665;DHT22;26679;50.872;4.332;2022-09-17T18:11:51;13.30;99.90
39665;DHT22;26679;50.872;4.332;2022-09-17T18:14:18;13.20;99.90
39665;DHT22;26679;50.872;4.332;2022-09-17T18:16:44;13.20;99.90
39665;DHT22;26679;50.872;4.332;2022-09-17T18:19:09;13.10;99.90
39665;DHT22;26679;50.872;4.332;2022-09-17T18:21:35;13.10;99.90
39665;DHT22;26679;50.872;4.332;2022-09-17T18:24:01;13.10;99.90
39665;DHT22;26679;50.872;4.332;2022-09-17T18:26:27;13.10;99.90
39665;DHT22;26679;50.872;4.332;2022-09-17T18:28:53;13.10;99.90
39665;DHT22;26679;50.872;4.332;2022-09-17T18:33:44;13.10;99.90
39665;DHT22;26679;50.872;4.332;2022-09-17T18:36:10;13.10;99.90
39665;DHT22;26679;50.872;4.332;2022-09-17T18:38:36;13.10;99.90
39665;DHT22;26679;50.872;4.332;2022-09-17T18:41:04;13.20;99.90
39665;DHT22;26679;50.872;4.332;2022-09-17T18:43:31;13.20;99.90
39665;DHT22;26679;50.872;4.332;2022-09-17T18:45:57;13.20;99.90
39665;DHT22;26679;50.872;4.332;2022-09-17T18:48:23;13.20;99.90
39665;DHT22;26679;50.872;4.332;2022-09-17T18:53:25;13.10;99.90
39665;DHT22;26679;50.872;4.332;2022-09-17T18:55:52;13.10;99.90
39665;DHT22;26679;50.872;4.332;2022-09-17T18:58:17;13.00;99.90
39665;DHT22;26679;50.872;4.332;2022-09-17T19:00:43;13.00;99.90
39665;DHT22;26679;50.872;4.332;2022-09-17T19:03:09;13.00;99.90
39665;DHT22;26679;50.872;4.332;2022-09-17T19:05:34;13.00;99.90
39665;DHT22;26679;50.872;4.332;2022-09-17T19:08:00;12.90;99.90
39665;DHT22;26679;50.872;4.332;2022-09-17T19:10:25;12.90;99.90
39665;DHT22;26679;50.872;4.332;2022-09-17T19:12:52;12.90;99.90